Time;durP1;ratioP1;P1;durP2;ratioP2;P2;SDS_P1;SDS_P2;PMS_P1;PMS_P2;Temp;Humidity;BMP_temperature;BMP_pressure;BME280_temperature;BME280_humidity;BME280_pressure;Samples;Min_cycle;Max_cycle;Signal;HPM_P1;HPM_P2
2023/06/04 00:01:51;;;;;;;9.38;3.38;;;;;;;11.96;28.29;95812.75;4923159;29;20051;-68
2023/06/04 00:04:17;;;;;;;6.05;4.05;;;;;;;11.94;28.38;95804.94;4924195;29;20039;-68
2023/06/04 00:06:43;;;;;;;3.42;2.20;;;;;;;12.01;28.24;95802.38;4925701;29;20035;-68
2023/06/04 00:09:09;;;;;;;8.07;5.03;;;;;;;11.77;28.90;95801.63;4924381;29;20047;-68
2023/06/04 00:11:35;;;;;;;4.75;2.17;;;;;;;11.78;28.44;95803.25;4924327;29;20030;-68
2023/06/04 00:14:00;;;;;;;6.38;3.75;;;;;;;11.84;28.50;95807.03;4923125;29;20062;-68
2023/06/04 00:16:26;;;;;;;3.28;2.58;;;;;;;11.80;29.47;95793.22;4923442;29;20051;-68
2023/06/04 00:18:51;;;;;;;4.55;3.08;;;;;;;11.75;28.44;95800.94;4923337;29;20735;-68
2023/06/04 00:21:16;;;;;;;5.88;4.25;;;;;;;11.80;28.48;95801.22;4923291;29;20039;-68
2023/06/04 00:23:42;;;;;;;8.15;2.40;;;;;;;11.72;28.57;95803.97;4924718;29;20332;-68
2023/06/04 00:26:07;;;;;;;4.07;2.45;;;;;;;11.67;28.66;95801.03;4923977;29;20039;-68
2023/06/04 00:28:33;;;;;;;3.78;2.28;;;;;;;11.77;28.56;95804.28;4923255;29;20087;-68
2023/06/04 00:30:58;;;;;;;4.63;2.28;;;;;;;11.73;28.56;95800.31;4923440;29;20036;-68
2023/06/04 00:33:23;;;;;;;5.32;2.05;;;;;;;11.69;28.55;95802.50;4922911;29;20046;-68
2023/06/04 00:35:49;;;;;;;6.22;2.53;;;;;;;11.63;28.99;95801.38;4923178;29;20311;-68
2023/06/04 00:38:15;;;;;;;2.95;2.00;;;;;;;11.64;28.73;95802.22;4922615;29;20039;-68
2023/06/04 00:40:40;;;;;;;4.97;3.17;;;;;;;11.60;28.71;95793.72;4923409;29;20511;-68
2023/06/04 00:43:05;;;;;;;4.35;2.50;;;;;;;11.67;28.68;95803.69;4922734;29;20045;-68
2023/06/04 00:45:31;;;;;;;3.30;1.80;;;;;;;11.62;28.65;95796.22;4921823;29;20051;-68
2023/06/04 00:47:57;;;;;;;5.38;3.40;;;;;;;11.53;28.75;95803.50;4923251;29;20028;-68
2023/06/04 00:50:23;;;;;;;7.72;3.55;;;;;;;11.45;29.29;95798.19;4922817;29;20031;-68
2023/06/04 00:52:49;;;;;;;2.33;1.70;;;;;;;11.42;28.78;95799.38;4922505;29;20310;-68
2023/06/04 00:55:17;;;;;;;3.92;1.70;;;;;;;11.44;28.94;95801.88;4934689;29;20063;-68
2023/06/04 00:57:43;;;;;;;;;;;;;;;11.42;28.95;95803.91;4923394;29;20140;-68
2023/06/04 01:00:12;;;;;;;3.87;2.30;;;;;;;11.33;29.15;95803.13;4923756;29;19918;-68
2023/06/04 01:02:38;;;;;;;2.17;1.88;;;;;;;11.38;28.85;95800.75;4922462;29;20070;-69
2023/06/04 01:05:09;;;;;;;2.35;1.88;;;;;;;11.36;28.97;95806.25;4921843;29;20459;-69
2023/06/04 01:07:35;;;;;;;2.60;1.80;;;;;;;11.38;28.86;95806.94;4923087;29;20415;-69
2023/06/04 01:10:01;;;;;;;3.65;2.42;;;;;;;11.19;29.38;95805.56;4912531;29;20075;-69
2023/06/04 01:12:26;;;;;;;7.68;2.58;;;;;;;11.22;30.03;95809.72;4924339;29;20402;-69
2023/06/04 01:14:51;;;;;;;3.20;2.22;;;;;;;11.15;29.84;95801.59;4926169;29;20091;-69
2023/06/04 01:17:36;;;;;;;2.25;1.83;;;;;;;11.13;29.12;95809.75;4925733;29;20327;-69
2023/06/04 01:20:26;;;;;;;5.10;2.95;;;;;;;11.07;29.19;95802.44;4925156;29;20042;-69
2023/06/04 01:22:54;;;;;;;5.47;3.00;;;;;;;11.11;29.18;95813.59;4926401;29;20087;-69
2023/06/04 01:25:30;;;;;;;6.85;2.55;;;;;;;11.06;29.28;95811.47;4926361;29;20587;-69
2023/06/04 01:27:56;;;;;;;6.95;1.73;;;;;;;11.08;29.32;95805.94;4914808;29;20032;-69
2023/06/04 01:30:32;;;;;;;2.88;2.30;;;;;;;11.08;29.15;95804.09;4933270;29;20574;-69
2023/06/04 01:32:59;;;;;;;3.90;2.90;;;;;;;10.99;29.52;95811.31;4926455;29;20087;-69
2023/06/04 01:35:25;;;;;;;3.47;2.35;;;;;;;11.00;29.59;95806.81;4926504;29;20041;-69
2023/06/04 01:37:51;;;;;;;6.32;2.97;;;;;;;10.96;29.29;95806.34;4925808;29;20023;-69
2023/06/04 01:40:17;;;;;;;4.72;2.30;;;;;;;10.98;29.59;95807.00;4926334;29;20031;-69
2023/06/04 01:42:42;;;;;;;6.32;2.42;;;;;;;11.06;29.22;95808.78;4931238;29;20052;-69
2023/06/04 01:45:08;;;;;;;8.77;2.60;;;;;;;10.90;29.49;95812.38;4925262;29;20023;-69
2023/06/04 01:47:34;;;;;;;4.43;2.10;;;;;;;11.02;29.17;95798.66;4926673;29;20577;-69
2023/06/04 01:50:01;;;;;;;2.38;1.77;;;;;;;10.91;29.59;95806.03;4925639;29;20187;-69
2023/06/04 01:52:26;;;;;;;5.40;2.60;;;;;;;10.78;29.86;95808.44;4926133;29;20049;-69
2023/06/04 01:54:52;;;;;;;4.63;2.20;;;;;;;10.78;29.97;95795.94;4925832;29;20044;-69
2023/06/04 01:57:19;;;;;;;4.68;1.83;;;;;;;10.68;29.81;95803.34;4925473;29;20039;-69
2023/06/04 01:59:44;;;;;;;6.45;2.53;;;;;;;10.75;29.81;95805.13;4926255;29;20035;-69
2023/06/04 02:02:10;;;;;;;2.90;2.00;;;;;;;10.86;29.46;95801.25;4925662;29;20043;-69
2023/06/04 02:04:36;;;;;;;3.67;2.55;;;;;;;10.71;29.66;95803.81;4925980;29;20032;-69
2023/06/04 02:07:02;;;;;;;6.10;2.00;;;;;;;10.86;29.31;95805.75;4925360;29;20143;-69
2023/06/04 02:09:27;;;;;;;8.27;2.65;;;;;;;10.78;29.33;95795.94;4925316;29;20047;-69
2023/06/04 02:11:53;;;;;;;5.47;2.20;;;;;;;10.89;29.21;95800.06;4925825;29;20467;-69
2023/06/04 02:14:18;;;;;;;2.35;2.00;;;;;;;10.94;28.93;95805.69;4925186;29;20106;-69
2023/06/04 02:16:44;;;;;;;2.70;2.10;;;;;;;10.88;28.95;95804.56;4925662;29;20334;-69
2023/06/04 02:19:12;;;;;;;3.42;2.00;;;;;;;10.78;29.33;95798.59;4925375;29;20048;-69
2023/06/04 02:21:38;;;;;;;3.08;2.40;;;;;;;10.79;29.60;95799.44;4925479;29;20055;-69
2023/06/04 02:24:03;;;;;;;5.95;2.45;;;;;;;10.51;29.75;95800.75;4924808;29;20039;-69
2023/06/04 02:26:29;;;;;;;5.38;2.30;;;;;;;10.72;29.30;95802.78;4924940;29;20036;-69
2023/06/04 02:28:54;;;;;;;2.92;2.20;;;;;;;10.68;29.31;95804.16;4925168;29;20380;-69
2023/06/04 02:31:21;;;;;;;4.38;3.33;;;;;;;10.47;31.53;95807.41;4925425;29;20023;-69
2023/06/04 02:33:46;;;;;;;2.53;2.33;;;;;;;10.35;30.11;95810.47;4924987;29;20055;-69
2023/06/04 02:36:12;;;;;;;3.88;2.40;;;;;;;10.56;29.93;95810.88;4925405;29;20051;-69
2023/06/04 02:38:37;;;;;;;4.35;2.10;;;;;;;10.54;29.38;95816.38;4924756;29;20036;-69
2023/06/04 02:41:03;;;;;;;5.68;3.03;;;;;;;10.53;29.83;95812.06;4924105;29;20306;-69
2023/06/04 02:43:28;;;;;;;4.05;2.33;;;;;;;10.37;30.28;95810.28;4924796;29;20051;-69
2023/06/04 02:45:53;;;;;;;5.22;2.70;;;;;;;10.35;31.33;95810.47;4924670;29;20050;-69
2023/06/04 02:48:19;;;;;;;3.60;2.33;;;;;;;10.31;30.24;95814.47;4925597;29;20042;-69
2023/06/04 02:50:44;;;;;;;4.95;2.53;;;;;;;10.21;30.66;95809.31;4924827;29;20708;-69
2023/06/04 02:53:10;;;;;;;6.57;2.80;;;;;;;10.24;30.46;95802.84;4924624;29;20035;-69
2023/06/04 02:55:36;;;;;;;3.05;2.00;;;;;;;10.22;30.14;95808.34;4924745;29;20031;-69
2023/06/04 02:58:02;;;;;;;3.50;2.35;;;;;;;10.01;30.96;95819.50;4924872;29;20028;-69
2023/06/04 03:00:27;;;;;;;6.05;2.55;;;;;;;10.18;30.56;95808.84;4924443;29;20027;-69
2023/06/04 03:03:01;;;;;;;2.28;2.08;;;;;;;10.13;30.25;95811.19;4923645;29;20040;-69
2023/06/04 03:05:26;;;;;;;5.68;2.30;;;;;;;10.04;30.48;95818.34;4914191;29;20510;-69
2023/06/04 03:07:52;;;;;;;6.35;2.78;;;;;;;9.88;31.62;95814.69;4924829;29;20077;-69
2023/06/04 03:10:17;;;;;;;3.58;2.60;;;;;;;10.06;30.64;95811.03;4924059;29;20348;-69
2023/06/04 03:12:43;;;;;;;3.45;2.10;;;;;;;9.98;30.56;95820.69;4923506;29;20027;-69
2023/06/04 03:15:08;;;;;;;5.60;2.42;;;;;;;9.99;30.86;95824.16;4924029;29;20083;-69
2023/06/04 03:17:34;;;;;;;2.20;1.98;;;;;;;10.07;30.38;95820.69;4923803;29;20657;-69
2023/06/04 03:20:00;;;;;;;4.93;2.20;;;;;;;10.09;30.43;95816.84;4924805;29;20325;-69
2023/06/04 03:22:25;;;;;;;3.53;2.53;;;;;;;10.18;30.68;95820.34;4924283;29;20446;-69
2023/06/04 03:24:52;;;;;;;4.10;2.55;;;;;;;10.11;30.19;95814.03;4924363;29;20368;-70
2023/06/04 03:27:17;;;;;;;3.97;2.47;;;;;;;9.89;31.19;95823.53;4924165;29;20369;-70
2023/06/04 03:29:43;;;;;;;4.93;2.70;;;;;;;10.01;30.81;95813.34;4923533;29;20402;-69
2023/06/04 03:32:08;;;;;;;5.25;2.50;;;;;;;10.03;30.31;95817.50;4924264;29;20420;-69
2023/06/04 03:34:33;;;;;;;4.43;2.50;;;;;;;10.12;30.70;95809.53;4924137;29;20214;-69
2023/06/04 03:36:59;;;;;;;4.43;2.40;;;;;;;10.18;30.23;95815.00;4924152;29;20406;-69
2023/06/04 03:39:25;;;;;;;3.13;2.30;;;;;;;10.22;30.23;95810.16;4924281;29;20031;-69
2023/06/04 03:41:50;;;;;;;3.35;2.50;;;;;;;10.20;30.54;95817.50;4921810;29;20032;-69
2023/06/04 03:44:16;;;;;;;7.05;2.60;;;;;;;10.15;30.64;95817.16;4923056;29;20491;-69
2023/06/04 03:46:42;;;;;;;3.17;2.10;;;;;;;10.11;30.20;95824.66;4931346;29;20130;-69
2023/06/04 03:49:09;;;;;;;2.20;1.98;;;;;;;10.14;30.56;95811.03;4923870;29;20386;-69
2023/06/04 03:51:34;;;;;;;2.63;2.03;;;;;;;10.18;30.23;95814.16;4923806;29;20126;-69
2023/06/04 03:54:00;;;;;;;4.72;2.63;;;;;;;10.21;30.76;95809.31;4923639;29;20050;-69
2023/06/04 03:56:28;;;;;;;4.15;2.20;;;;;;;10.22;30.62;95808.34;4923871;29;20023;-69
2023/06/04 03:58:54;;;;;;;3.78;2.20;;;;;;;10.29;30.21;95808.47;4923883;29;20185;-69
2023/06/04 04:01:19;;;;;;;3.35;2.20;;;;;;;10.26;30.68;95810.66;4922944;29;20032;-69
2023/06/04 04:03:48;;;;;;;2.53;2.10;;;;;;;10.22;30.72;95804.84;4924162;29;20506;-69
2023/06/04 04:06:13;;;;;;;3.00;2.00;;;;;;;10.47;30.17;95812.72;4923504;29;20091;-69
2023/06/04 04:08:42;;;;;;;2.65;2.10;;;;;;;10.44;30.38;95813.09;4922706;29;20059;-69
2023/06/04 04:11:07;;;;;;;4.85;2.10;;;;;;;10.30;30.49;95806.66;4923263;29;20471;-69
2023/06/04 04:13:33;;;;;;;7.65;2.13;;;;;;;10.43;30.56;95800.78;4923078;29;20036;-69
2023/06/04 04:15:58;;;;;;;2.85;2.30;;;;;;;10.51;30.16;95803.44;4923562;29;20059;-69
2023/06/04 04:18:24;;;;;;;5.90;1.95;;;;;;;10.61;30.32;95805.88;4923559;29;20071;-69
2023/06/04 04:20:49;;;;;;;4.18;2.83;;;;;;;10.30;31.56;95807.47;4923494;29;20538;-69
2023/06/04 04:23:16;;;;;;;3.15;2.20;;;;;;;10.45;31.04;95806.75;4923328;29;20036;-69
2023/06/04 04:25:43;;;;;;;2.72;2.00;;;;;;;10.77;30.41;95807.59;4923179;29;20274;-69
2023/06/04 04:28:09;;;;;;;2.67;2.25;;;;;;;10.82;30.24;95807.09;4923638;29;20031;-69
2023/06/04 04:30:35;;;;;;;5.28;2.63;;;;;;;10.92;30.34;95806.88;4922861;29;20043;-69
2023/06/04 04:33:05;;;;;;;3.15;1.92;;;;;;;10.84;29.74;95805.91;4923245;29;20039;-69
2023/06/04 04:35:32;;;;;;;2.15;1.95;;;;;;;11.08;29.39;95808.63;4923580;29;20032;-69
2023/06/04 04:37:58;;;;;;;3.57;2.20;;;;;;;11.04;29.32;95810.78;4923090;29;20130;-69
2023/06/04 04:40:24;;;;;;;3.88;2.03;;;;;;;11.17;29.50;95809.41;4923707;29;20042;-69
2023/06/04 04:42:49;;;;;;;3.63;2.15;;;;;;;11.37;29.22;95812.44;4923310;29;20040;-69
2023/06/04 04:45:15;;;;;;;3.67;2.10;;;;;;;11.52;29.00;95815.13;4922842;29;20490;-69
2023/06/04 04:47:40;;;;;;;3.70;2.38;;;;;;;11.53;29.04;95816.81;4925395;29;20036;-69
2023/06/04 04:50:06;;;;;;;4.40;1.90;;;;;;;11.78;28.66;95816.59;4926674;29;20047;-69
2023/06/04 04:52:31;;;;;;;3.67;2.13;;;;;;;11.93;28.39;95800.59;4926998;29;20499;-69
2023/06/04 04:54:57;;;;;;;3.42;2.00;;;;;;;12.03;28.82;95811.84;4927190;29;20042;-69
2023/06/04 04:57:23;;;;;;;4.72;2.28;;;;;;;11.93;28.78;95826.47;4926978;29;20039;-69
2023/06/04 04:59:49;;;;;;;3.03;2.03;;;;;;;12.13;28.19;95822.28;4927353;29;20340;-69
2023/06/04 05:02:15;;;;;;;3.45;1.95;;;;;;;12.09;28.31;95818.34;4926827;29;20087;-70
2023/06/04 05:04:40;;;;;;;2.92;2.10;;;;;;;12.33;28.33;95816.41;4926587;29;20038;-69
2023/06/04 05:07:06;;;;;;;3.53;2.13;;;;;;;12.50;27.99;95819.72;4926800;29;20035;-69
2023/06/04 05:09:31;;;;;;;3.10;2.10;;;;;;;12.49;27.88;95810.06;4926276;29;20047;-69
2023/06/04 05:11:57;;;;;;;2.75;1.80;;;;;;;12.74;27.48;95816.91;4926759;29;20023;-70
2023/06/04 05:14:22;;;;;;;2.30;1.73;;;;;;;12.87;27.84;95824.25;4926221;29;20076;-70
2023/06/04 05:16:48;;;;;;;2.15;1.90;;;;;;;12.96;27.55;95815.13;4926493;29;20047;-69
2023/06/04 05:19:15;;;;;;;5.20;2.15;;;;;;;13.14;27.52;95819.25;4925978;29;20515;-69
2023/06/04 05:21:41;;;;;;;3.75;1.90;;;;;;;13.39;27.01;95821.53;4926257;29;20047;-69
2023/06/04 05:24:07;;;;;;;5.13;2.00;;;;;;;13.54;26.56;95830.31;4926751;29;20418;-69
2023/06/04 05:26:33;;;;;;;2.70;1.70;;;;;;;13.64;26.86;95827.34;4926318;29;20047;-69
2023/06/04 05:28:58;;;;;;;3.38;2.20;;;;;;;13.77;26.50;95821.25;4915476;29;20028;-69
2023/06/04 05:31:26;;;;;;;2.83;1.80;;;;;;;13.92;26.04;95823.91;4926449;29;20031;-69
2023/06/04 05:33:52;;;;;;;2.42;1.90;;;;;;;14.04;25.58;95829.53;4925460;29;20658;-69
2023/06/04 05:36:17;;;;;;;5.32;2.17;;;;;;;14.12;25.45;95827.72;4926214;29;20118;-69
2023/06/04 05:38:42;;;;;;;2.55;1.92;;;;;;;14.39;25.05;95839.44;4926297;29;20044;-69
2023/06/04 05:41:08;;;;;;;4.85;1.85;;;;;;;14.43;24.94;95835.34;4926028;29;20390;-69
2023/06/04 05:43:33;;;;;;;2.78;1.70;;;;;;;14.64;24.81;95840.81;4926056;29;20039;-69
2023/06/04 05:45:59;;;;;;;3.50;2.00;;;;;;;14.88;24.98;95841.34;4926060;29;20096;-69
2023/06/04 05:48:24;;;;;;;4.45;1.80;;;;;;;14.84;25.29;95846.28;4926027;29;20032;-69
2023/06/04 05:50:50;;;;;;;2.33;1.60;;;;;;;15.05;24.91;95844.50;4934091;29;20648;-69
2023/06/04 05:53:16;;;;;;;2.33;1.58;;;;;;;15.20;24.58;95845.16;4925654;29;20040;-69
2023/06/04 05:55:41;;;;;;;3.22;1.80;;;;;;;15.30;24.74;95850.16;4926238;29;20044;-69
2023/06/04 05:58:07;;;;;;;2.20;1.58;;;;;;;15.35;24.03;95849.53;4924846;29;20040;-69
2023/06/04 06:00:32;;;;;;;3.88;1.88;;;;;;;15.44;23.80;95848.31;4925404;29;20383;-69
2023/06/04 06:02:57;;;;;;;5.13;1.50;;;;;;;15.63;23.92;95853.16;4925561;29;20052;-69
2023/06/04 06:05:23;;;;;;;1.90;1.40;;;;;;;15.67;23.91;95855.19;4925743;29;20032;-69
2023/06/04 06:07:48;;;;;;;2.58;1.70;;;;;;;15.79;23.33;95852.75;4925986;29;20028;-69
2023/06/04 06:10:15;;;;;;;2.72;1.70;;;;;;;15.73;23.78;95856.25;4925450;29;20095;-69
2023/06/04 06:12:41;;;;;;;2.50;1.88;;;;;;;15.82;23.70;95851.50;4925233;29;20039;-69
2023/06/04 06:15:06;;;;;;;3.70;1.80;;;;;;;15.74;23.54;95857.91;4924599;29;20455;-70
2023/06/04 06:17:32;;;;;;;2.05;1.88;;;;;;;16.00;23.24;95859.78;4917248;29;20110;-69
2023/06/04 06:19:58;;;;;;;2.28;2.00;;;;;;;16.00;23.09;95862.44;4925510;29;20038;-70
2023/06/04 06:22:23;;;;;;;3.33;1.70;;;;;;;16.08;24.04;95860.59;4924984;29;20036;-69
2023/06/04 06:24:49;;;;;;;2.70;1.70;;;;;;;16.18;24.25;95869.03;4925550;29;20032;-70
2023/06/04 06:27:15;;;;;;;3.53;1.70;;;;;;;16.29;23.63;95867.59;4925146;29;20047;-70
2023/06/04 06:29:41;;;;;;;6.53;1.73;;;;;;;16.62;22.93;95876.66;4925017;29;20063;-70
2023/06/04 06:32:07;;;;;;;2.10;1.67;;;;;;;16.60;22.92;95876.03;4923764;29;20035;-69
2023/06/04 06:34:32;;;;;;;2.10;1.50;;;;;;;16.71;22.16;95863.81;4924686;29;20043;-69
2023/06/04 06:36:58;;;;;;;1.70;1.60;;;;;;;16.39;22.24;95880.63;4924932;29;20417;-69
2023/06/04 06:39:23;;;;;;;5.63;1.65;;;;;;;16.43;22.77;95881.03;4925432;29;20023;-69
2023/06/04 06:41:49;;;;;;;3.90;1.80;;;;;;;16.49;23.94;95877.53;4924999;29;20107;-69
2023/06/04 06:44:14;;;;;;;3.28;1.60;;;;;;;16.76;23.97;95883.66;4924881;29;20040;-69
2023/06/04 06:46:40;;;;;;;2.85;1.65;;;;;;;16.94;22.03;95887.53;4924625;29;20691;-69
2023/06/04 06:49:05;;;;;;;2.70;1.73;;;;;;;17.14;21.46;95879.41;4924588;29;20050;-69
2023/06/04 06:51:30;;;;;;;3.75;1.90;;;;;;;17.10;22.11;95878.16;4924546;29;20020;-69
2023/06/04 06:53:56;;;;;;;1.70;1.60;;;;;;;17.28;22.50;95874.78;4924631;29;20043;-69
2023/06/04 06:56:22;;;;;;;1.50;1.40;;;;;;;17.36;22.11;95875.56;4924339;29;20039;-69
2023/06/04 06:58:47;;;;;;;2.33;1.58;;;;;;;17.50;23.21;95882.53;4924367;29;20036;-69
2023/06/04 07:01:13;;;;;;;4.38;2.10;;;;;;;17.57;21.94;95889.75;4922255;29;20028;-69
2023/06/04 07:03:39;;;;;;;5.13;1.92;;;;;;;17.65;21.41;95879.53;4924381;29;20039;-70
2023/06/04 07:06:05;;;;;;;5.22;1.90;;;;;;;17.73;20.70;95877.63;4924508;29;20086;-69
2023/06/04 07:08:31;;;;;;;2.60;1.88;;;;;;;17.79;21.76;95885.66;4923943;29;20023;-70
2023/06/04 07:10:56;;;;;;;3.10;1.88;;;;;;;17.69;20.27;95882.63;4923954;29;20046;-70
2023/06/04 07:13:22;;;;;;;3.55;2.03;;;;;;;17.96;22.10;95887.88;4917507;29;20024;-69
2023/06/04 07:15:47;;;;;;;4.88;2.70;;;;;;;17.72;21.00;95884.06;4923615;29;20149;-69
2023/06/04 07:18:12;;;;;;;4.55;2.28;;;;;;;18.12;20.83;95888.38;4923193;29;20525;-70
2023/06/04 07:20:38;;;;;;;2.33;1.80;;;;;;;18.12;19.96;95897.25;4924770;29;20076;-70
2023/06/04 07:23:06;;;;;;;3.83;2.55;;;;;;;18.15;19.59;95896.81;4924140;29;20582;-70
2023/06/04 07:25:32;;;;;;;2.78;2.20;;;;;;;18.28;21.14;95898.59;4924405;29;20394;-70
2023/06/04 07:27:57;;;;;;;7.22;1.75;;;;;;;18.16;20.06;95892.28;4924459;29;20131;-70
2023/06/04 07:30:24;;;;;;;4.72;2.90;;;;;;;18.02;20.84;95902.31;4924009;29;20054;-70
2023/06/04 07:32:49;;;;;;;2.33;2.13;;;;;;;18.20;20.83;95898.03;4923944;29;20458;-70
2023/06/04 07:35:15;;;;;;;3.80;2.25;;;;;;;18.07;20.06;95893.56;4924425;29;20158;-70
2023/06/04 07:37:41;;;;;;;7.40;3.20;;;;;;;18.24;20.84;95891.16;4923355;29;20364;-70
2023/06/04 07:40:07;;;;;;;4.88;2.70;;;;;;;18.09;20.74;95899.56;4924301;29;20066;-70
2023/06/04 07:42:32;;;;;;;3.67;2.50;;;;;;;18.33;19.77;95897.09;4924302;29;20142;-70
2023/06/04 07:44:58;;;;;;;4.63;2.92;;;;;;;18.37;19.19;95904.53;4923319;29;20043;-70
2023/06/04 07:47:23;;;;;;;5.40;2.70;;;;;;;18.64;20.33;95895.38;4929098;29;20117;-70
2023/06/04 07:49:49;;;;;;;6.50;3.17;;;;;;;18.78;19.26;95901.47;4922946;29;20043;-71
2023/06/04 07:52:14;;;;;;;5.05;2.55;;;;;;;18.68;19.81;95907.38;4923317;29;20051;-71
2023/06/04 07:54:41;;;;;;;4.88;1.90;;;;;;;18.71;20.42;95904.22;4923105;29;20466;-70
2023/06/04 07:57:07;;;;;;;2.08;1.42;;;;;;;18.87;18.94;95902.78;4923417;29;20544;-71
2023/06/04 07:59:32;;;;;;;4.97;2.08;;;;;;;18.93;18.95;95909.16;4923313;29;20099;-70
2023/06/04 08:01:58;;;;;;;3.67;1.90;;;;;;;19.02;19.34;95915.09;4923630;29;20310;-71
2023/06/04 08:04:23;;;;;;;2.50;1.88;;;;;;;19.19;19.15;95923.41;4923471;29;20400;-71
2023/06/04 08:06:49;;;;;;;5.47;2.65;;;;;;;19.19;19.65;95924.25;4922280;29;20076;-70
2023/06/04 08:09:15;;;;;;;3.60;2.50;;;;;;;19.26;19.29;95917.91;4923529;29;20098;-71
2023/06/04 08:11:41;;;;;;;5.47;3.13;;;;;;;19.55;20.50;95912.81;4923541;29;20047;-70
2023/06/04 08:14:06;;;;;;;3.65;2.35;;;;;;;19.36;19.06;95907.47;4922986;29;20122;-70
2023/06/04 08:16:32;;;;;;;2.88;1.90;;;;;;;19.78;17.85;95919.38;4921164;29;20063;-70
2023/06/04 08:18:57;;;;;;;5.82;3.03;;;;;;;19.67;18.21;95916.38;4923796;29;20048;-70
2023/06/04 08:21:26;;;;;;;3.53;2.17;;;;;;;19.81;17.09;95916.19;4922846;29;20039;-70
2023/06/04 08:23:52;;;;;;;5.22;1.88;;;;;;;19.61;18.11;95914.59;4923724;29;20540;-70
2023/06/04 08:26:19;;;;;;;4.47;2.60;;;;;;;19.49;18.62;95914.56;4923269;29;20035;-70
2023/06/04 08:28:44;;;;;;;3.63;2.03;;;;;;;19.53;19.48;95923.84;4923426;29;20024;-70
2023/06/04 08:31:10;;;;;;;5.70;2.72;;;;;;;19.68;19.00;95922.63;4922915;29;20768;-70
2023/06/04 08:33:35;;;;;;;6.30;2.65;;;;;;;19.80;18.78;95920.78;4923822;29;20050;-70
2023/06/04 08:36:01;;;;;;;3.85;3.03;;;;;;;19.89;18.49;95923.16;4922931;29;20130;-70
2023/06/04 08:38:26;;;;;;;2.88;2.28;;;;;;;20.18;19.28;95926.06;4923369;29;20074;-70
2023/06/04 08:40:52;;;;;;;5.72;2.60;;;;;;;19.76;18.02;95922.28;4923703;29;20403;-71
2023/06/04 08:43:17;;;;;;;3.05;1.85;;;;;;;20.22;17.60;95922.66;4922970;29;20518;-70
2023/06/04 08:45:43;;;;;;;4.70;2.40;;;;;;;20.42;18.02;95932.31;4894561;29;20047;-70
2023/06/04 08:48:11;;;;;;;4.43;2.88;;;;;;;20.28;18.96;95926.31;4920075;29;20091;-70
2023/06/04 08:50:36;;;;;;;6.22;2.80;;;;;;;20.46;17.97;95921.84;4923084;29;20059;-71
2023/06/04 08:53:02;;;;;;;5.15;2.53;;;;;;;20.54;18.80;95920.69;4925724;29;20026;-70
2023/06/04 08:55:27;;;;;;;6.22;1.95;;;;;;;20.45;17.53;95939.13;4897022;29;20427;-70
2023/06/04 08:57:52;;;;;;;4.07;1.98;;;;;;;20.72;17.62;95933.28;4893009;29;20035;-71
2023/06/04 09:00:18;;;;;;;3.53;2.30;;;;;;;21.04;17.52;95934.81;4907586;29;20067;-70
2023/06/04 09:02:44;;;;;;;7.15;2.13;;;;;;;20.96;17.05;95939.50;4922815;29;20337;-71
2023/06/04 09:05:10;;;;;;;2.83;1.85;;;;;;;20.95;18.06;95929.75;4931562;29;20032;-71
2023/06/04 09:07:36;;;;;;;6.55;2.30;;;;;;;21.09;17.75;95938.44;4923257;29;20295;-70
2023/06/04 09:10:02;;;;;;;3.07;2.70;;;;;;;20.92;17.60;95937.50;4912701;29;20028;-70
2023/06/04 09:12:28;;;;;;;3.50;2.40;;;;;;;21.44;17.58;95942.13;4923332;29;20574;-71
2023/06/04 09:14:53;;;;;;;7.32;2.10;;;;;;;21.49;17.68;95941.44;4910732;29;20249;-70
2023/06/04 09:17:25;;;;;;;2.97;2.03;;;;;;;21.59;16.81;95929.97;4923052;29;20055;-70
2023/06/04 09:19:50;;;;;;;4.68;2.33;;;;;;;21.86;16.48;95941.03;4922703;29;20043;-70
2023/06/04 09:22:16;;;;;;;5.47;2.10;;;;;;;21.90;15.87;95942.19;4923319;29;20028;-70
2023/06/04 09:24:42;;;;;;;8.40;2.25;;;;;;;22.00;16.72;95948.91;4922711;29;20075;-70
2023/06/04 09:27:17;;;;;;;3.42;2.50;;;;;;;22.01;16.72;95943.25;4922441;29;20050;-70
2023/06/04 09:29:53;;;;;;;3.83;2.10;;;;;;;22.01;16.85;95945.13;4924099;29;20114;-70
2023/06/04 09:32:30;;;;;;;4.35;2.63;;;;;;;21.93;17.26;95956.34;4925845;29;20039;-70
2023/06/04 09:34:57;;;;;;;3.22;2.00;;;;;;;22.11;17.12;95948.00;4926141;29;20039;-70
2023/06/04 09:37:22;;;;;;;3.28;2.40;;;;;;;22.60;17.10;95943.13;4927668;29;20020;-70
2023/06/04 09:39:55;;;;;;;6.47;2.70;;;;;;;22.33;15.70;95946.47;4913770;29;20039;-71
2023/06/04 09:42:21;;;;;;;5.78;3.72;;;;;;;22.53;16.37;95938.69;4926719;29;20039;-70
2023/06/04 09:44:47;;;;;;;5.43;3.05;;;;;;;22.97;16.25;95947.19;4926041;29;20038;-70
2023/06/04 09:47:12;;;;;;;5.85;3.10;;;;;;;23.11;15.01;95942.22;4928901;29;20491;-70
2023/06/04 09:49:45;;;;;;;6.15;3.30;;;;;;;22.73;15.94;95944.66;4927352;29;20020;-70
2023/06/04 09:52:10;;;;;;;4.03;2.75;;;;;;;23.04;15.79;95948.63;4926156;29;20042;-70
2023/06/04 09:54:41;;;;;;;5.88;4.32;;;;;;;23.32;16.79;95948.75;4925933;29;20032;-70
2023/06/04 09:57:16;;;;;;;6.28;4.18;;;;;;;22.83;14.55;95944.81;4925896;29;20040;-71
2023/06/04 09:59:46;;;;;;;5.80;3.65;;;;;;;23.14;15.95;95950.69;4925716;29;20071;-70
2023/06/04 10:02:12;;;;;;;4.88;3.30;;;;;;;23.14;14.72;95950.69;4926004;29;20119;-71
2023/06/04 10:04:40;;;;;;;5.90;3.85;;;;;;;23.10;15.20;95944.09;4925667;29;20428;-71
2023/06/04 10:07:06;;;;;;;8.25;5.20;;;;;;;23.26;15.67;95939.72;4913482;29;20050;-70
2023/06/04 10:09:31;;;;;;;6.07;4.00;;;;;;;22.65;15.98;95949.44;4917076;29;20024;-71
2023/06/04 10:11:57;;;;;;;3.17;2.80;;;;;;;23.23;15.78;95951.09;4896060;29;20316;-70
2023/06/04 10:14:23;;;;;;;4.22;2.85;;;;;;;23.42;15.87;95946.16;4913506;29;20039;-71
2023/06/04 10:16:50;;;;;;;6.10;3.90;;;;;;;22.50;16.17;95943.75;4917113;29;20069;-70
2023/06/04 10:19:15;;;;;;;2.88;2.20;;;;;;;23.41;15.98;95947.22;4925558;29;20035;-70
2023/06/04 10:21:41;;;;;;;2.85;2.10;;;;;;;23.22;15.95;95945.91;4895457;29;20035;-70
2023/06/04 10:24:06;;;;;;;4.88;2.42;;;;;;;23.60;15.44;95944.19;4927164;29;20035;-70
2023/06/04 10:26:35;;;;;;;7.25;4.97;;;;;;;23.65;16.48;95943.41;4912889;29;20062;-70
2023/06/04 10:29:01;;;;;;;4.10;2.17;;;;;;;24.02;15.72;95941.91;4926860;29;20034;-70
2023/06/04 10:31:26;;;;;;;4.22;2.67;;;;;;;24.27;14.83;95954.09;4925164;29;20044;-70
2023/06/04 10:33:55;;;;;;;4.85;2.17;;;;;;;24.62;14.35;95941.91;4913516;29;20038;-71
2023/06/04 10:36:22;;;;;;;3.60;2.50;;;;;;;24.37;14.30;95948.75;4924578;29;20145;-71
2023/06/04 10:38:54;;;;;;;5.05;2.25;;;;;;;24.66;13.78;95948.44;4915112;29;20054;-71
2023/06/04 10:41:21;;;;;;;2.75;1.95;;;;;;;25.09;13.92;95951.19;4924947;29;20034;-70
2023/06/04 10:43:49;;;;;;;5.15;2.88;;;;;;;24.82;13.71;95948.56;4924996;29;20470;-70
2023/06/04 10:46:14;;;;;;;7.10;3.30;;;;;;;24.38;14.04;95950.44;4923722;29;20426;-70
2023/06/04 10:48:53;;;;;;;4.75;2.35;;;;;;;24.88;14.00;95947.47;4924592;29;20311;-70
2023/06/04 10:51:31;;;;;;;5.03;2.95;;;;;;;24.82;13.66;95943.13;4924506;29;20079;-70
2023/06/04 10:54:00;;;;;;;6.25;2.38;;;;;;;24.79;14.23;95940.91;4924990;29;20038;-70
2023/06/04 10:56:32;;;;;;;2.30;2.10;;;;;;;25.02;13.60;95950.59;4924615;29;20047;-70
2023/06/04 10:58:57;;;;;;;3.30;2.58;;;;;;;24.89;14.57;95951.88;4924601;29;20495;-70
2023/06/04 11:01:26;;;;;;;2.63;1.90;;;;;;;25.52;13.26;95963.13;4924472;29;20024;-70
2023/06/04 11:03:52;;;;;;;4.70;2.15;;;;;;;25.69;12.71;95952.81;4924264;29;20036;-70
2023/06/04 11:06:17;;;;;;;3.33;2.22;;;;;;;25.93;13.20;95965.94;4928682;29;20497;-70
2023/06/04 11:08:43;;;;;;;6.40;2.30;;;;;;;25.90;13.97;95962.97;4924462;29;20458;-70
2023/06/04 11:11:15;;;;;;;5.47;2.58;;;;;;;25.90;13.71;95961.03;4919409;29;20050;-70
2023/06/04 11:13:41;;;;;;;5.35;2.17;;;;;;;25.94;13.57;95953.16;4924672;29;20470;-70
2023/06/04 11:16:16;;;;;;;2.50;2.00;;;;;;;25.95;13.28;95952.88;4924482;29;20059;-70
2023/06/04 11:18:42;;;;;;;3.07;2.77;;;;;;;25.98;13.04;95949.63;4909686;29;20032;-70
2023/06/04 11:21:07;;;;;;;4.60;2.20;;;;;;;26.02;11.88;95946.34;4924914;29;20444;-71
2023/06/04 11:23:33;;;;;;;8.47;2.70;;;;;;;25.96;12.67;95943.59;4912473;29;20513;-69
2023/06/04 11:25:58;;;;;;;3.20;2.37;;;;;;;26.24;13.67;95941.47;4924553;29;20027;-69
2023/06/04 11:28:24;;;;;;;2.57;2.00;;;;;;;25.84;10.77;95948.50;4908955;29;20046;-69
2023/06/04 11:31:02;;;;;;;5.93;3.70;;;;;;;25.96;11.56;95929.97;4924157;29;20040;-69